Alta, Indiana
Current Conditions -  °F | °C
As of 2:35 PM on Friday 24 Oct 2014 (Local Time) from KPRG Reporting Station
Broken Clouds Broken Clouds  
Wind Chill: 67°   Ceiling: 3400
Heat Index: 67°   Visibility: 10mi
Dew Point: 54°   Wind: 5mph
Humidity: 62%   Direction: 220°SW
Pressure: 30.06"   Gusts: NA
Location:  39.7643°N, 87.4119°W
Report Text: KPRG 241835Z AUTO 22004KT 10SM BKN034 BKN041 20/12 A3006 RMK AO2 T01950121
Loading
Personal Weather Stations






























Interactive Weather Map
Tropical Storm Tracking
New forecast layout! Learn more

10-Day Weather Forecast

Advertisements
Track Severe Weather on mobile